createdAt,value
2019-05-19T04:00:36.550Z,58.31
2019-05-19T04:02:36.526Z,58.28
2019-05-19T04:04:36.502Z,58.05
2019-05-19T04:06:36.489Z,57.82
2019-05-19T04:08:36.468Z,58.03
2019-05-19T04:10:36.442Z,57.08
2019-05-19T04:12:36.422Z,57.29
2019-05-19T04:14:43.503Z,57.06
2019-05-19T04:16:36.405Z,56.65
2019-05-19T04:18:36.355Z,56.73
2019-05-19T04:20:36.324Z,56.62
2019-05-19T04:22:36.320Z,56.90
2019-05-19T04:24:36.284Z,55.96
2019-05-19T04:26:36.279Z,55.02
2019-05-19T04:28:36.266Z,55.50
2019-05-19T04:30:36.225Z,54.57
2019-05-19T04:32:36.222Z,54.41
2019-05-19T04:34:36.198Z,54.31
2019-05-19T04:36:36.156Z,53.17
2019-05-19T04:38:36.160Z,51.48
2019-05-19T04:40:36.137Z,50.92
2019-05-19T04:42:36.094Z,50.90
2019-05-19T04:44:36.090Z,50.98
2019-05-19T04:46:36.078Z,52.11
2019-05-19T04:48:36.026Z,51.91
2019-05-19T04:50:36.019Z,52.44
2019-05-19T04:52:35.999Z,52.67
2019-05-19T04:54:35.970Z,52.54
2019-05-19T04:56:35.960Z,52.84
2019-05-19T04:58:35.952Z,52.23
2019-05-19T05:00:35.909Z,52.54
2019-05-19T05:02:35.885Z,53.34
2019-05-19T05:04:35.885Z,52.84
2019-05-19T05:06:35.857Z,53.22
2019-05-19T05:08:35.804Z,52.41
2019-05-19T05:10:35.802Z,52.59
2019-05-19T05:12:35.791Z,52.26
2019-05-19T05:14:35.778Z,51.71
2019-05-19T05:16:35.714Z,50.07
2019-05-19T05:18:35.726Z,49.93
2019-05-19T05:20:35.676Z,49.57
2019-05-19T05:22:35.651Z,48.65
2019-05-19T05:24:35.649Z,48.22
2019-05-19T05:26:35.638Z,47.88
2019-05-19T05:28:35.602Z,47.38
2019-05-19T05:30:35.568Z,44.78
2019-05-19T05:32:35.566Z,43.21
2019-05-19T05:34:35.551Z,43.15
2019-05-19T05:36:35.534Z,42.51
2019-05-19T05:38:35.478Z,42.07
2019-05-19T05:40:35.480Z,42.21
2019-05-19T05:42:35.475Z,41.91
2019-05-19T05:44:35.414Z,41.36
2019-05-19T05:46:35.426Z,40.37
2019-05-19T05:48:35.403Z,39.11
2019-05-19T05:50:35.362Z,38.34
2019-05-19T05:52:38.543Z,38.85
2019-05-19T05:54:35.315Z,41.95
2019-05-19T05:56:35.303Z,42.90
2019-05-19T05:58:35.268Z,42.38
2019-05-19T06:00:35.234Z,42.80
2019-05-19T06:02:35.230Z,44.27
2019-05-19T06:04:35.192Z,45.31
2019-05-19T06:06:35.178Z,46.15
2019-05-19T06:08:35.219Z,46.49
2019-05-19T06:10:35.133Z,47.44
2019-05-19T06:12:35.130Z,47.78
2019-05-19T06:14:35.121Z,48.20
2019-05-19T06:16:35.060Z,48.14
2019-05-19T06:18:35.045Z,48.25
2019-05-19T06:20:35.054Z,48.77
2019-05-19T06:22:34.999Z,48.47
2019-05-19T06:24:35.011Z,48.67
2019-05-19T06:26:34.987Z,47.99
2019-05-19T06:28:34.930Z,48.90
2019-05-19T06:30:34.931Z,46.92
2019-05-19T06:32:34.934Z,45.94
2019-05-19T06:34:34.865Z,44.66
2019-05-19T06:36:34.861Z,42.69
2019-05-19T06:38:35.040Z,41.49
2019-05-19T06:40:34.798Z,39.24
2019-05-19T06:42:34.817Z,39.42
2019-05-19T06:44:34.795Z,41.97
2019-05-19T06:46:34.747Z,43.88
2019-05-19T06:48:34.717Z,45.83
2019-05-19T06:50:34.732Z,47.29
2019-05-19T06:52:34.679Z,47.63
2019-05-19T06:54:34.674Z,47.75
2019-05-19T06:56:34.632Z,48.48
2019-05-19T06:58:34.609Z,48.18
2019-05-19T07:00:34.597Z,48.38
2019-05-19T07:02:34.570Z,47.98
2019-05-19T07:04:34.551Z,47.78
2019-05-19T07:06:34.555Z,47.58
2019-05-19T07:08:34.520Z,47.98
2019-05-19T07:10:34.477Z,47.78
2019-05-19T07:12:34.472Z,47.75
2019-05-19T07:14:34.502Z,47.78
2019-05-19T07:16:34.403Z,47.75
2019-05-19T07:18:34.393Z,47.06
2019-05-19T07:20:34.375Z,47.63
2019-05-19T07:22:37.453Z,46.49
2019-05-19T07:24:34.325Z,45.67
2019-05-19T07:26:34.311Z,45.21
2019-05-19T07:28:34.290Z,44.87
2019-05-19T07:30:34.247Z,44.45
2019-05-19T07:32:34.249Z,44.13
2019-05-19T07:34:34.231Z,43.20
2019-05-19T07:36:34.191Z,43.06
2019-05-19T07:38:34.183Z,42.84
2019-05-19T07:40:34.171Z,42.72
2019-05-19T07:42:34.123Z,42.80
2019-05-19T07:44:34.104Z,42.88
2019-05-19T07:46:34.102Z,42.36
2019-05-19T07:48:34.075Z,42.14
2019-05-19T07:50:37.697Z,42.52
2019-05-19T07:52:34.032Z,41.71
2019-05-19T07:54:34.070Z,42.18
2019-05-19T07:56:33.967Z,42.46
2019-05-19T07:58:33.952Z,42.24
2019-05-19T08:00:33.940Z,42.20
2019-05-19T08:02:33.920Z,42.28
2019-05-19T08:04:33.897Z,41.69
2019-05-19T08:06:33.885Z,42.28
2019-05-19T08:08:33.839Z,42.57
2019-05-19T08:10:33.815Z,42.67
2019-05-19T08:12:33.830Z,43.16
2019-05-19T08:14:33.780Z,43.16
2019-05-19T08:16:33.761Z,43.06
2019-05-19T08:18:33.745Z,43.33
2019-05-19T08:20:33.718Z,43.22
2019-05-19T08:22:33.694Z,44.02
2019-05-19T08:24:33.684Z,44.02
2019-05-19T08:26:33.645Z,44.66
2019-05-19T08:28:33.628Z,44.66
2019-05-19T08:30:33.624Z,44.56
2019-05-19T08:32:33.582Z,44.76
2019-05-19T08:34:33.590Z,44.24
2019-05-19T08:36:33.548Z,43.90
2019-05-19T08:38:33.582Z,43.69
2019-05-19T08:40:33.511Z,43.27
2019-05-19T08:42:33.475Z,43.45
2019-05-19T08:44:33.449Z,43.15
2019-05-19T08:46:33.476Z,44.47
2019-05-19T08:48:33.406Z,44.79
2019-05-19T08:50:33.394Z,45.13
2019-05-19T08:52:33.378Z,46.06
2019-05-19T08:54:33.354Z,46.20
2019-05-19T08:56:33.343Z,45.39
2019-05-19T08:58:33.328Z,45.37
2019-05-19T09:00:37.634Z,44.24
2019-05-19T09:02:34.267Z,44.15
2019-05-19T09:04:33.259Z,44.24
2019-05-19T09:06:33.214Z,44.02
2019-05-19T09:08:33.190Z,43.93
2019-05-19T09:10:33.191Z,44.12
2019-05-19T09:12:33.173Z,43.93
2019-05-19T09:14:33.147Z,44.12
2019-05-19T09:16:33.127Z,44.22
2019-05-19T09:18:33.092Z,44.02
2019-05-19T09:20:33.089Z,44.12
2019-05-19T09:22:33.052Z,44.20
2019-05-19T09:24:33.017Z,43.71
2019-05-19T09:26:33.008Z,44.27
2019-05-19T09:28:32.980Z,43.59
2019-05-19T09:30:32.954Z,43.86
2019-05-19T09:32:32.953Z,43.74
2019-05-19T09:34:32.926Z,42.66
2019-05-19T09:36:32.893Z,43.74
2019-05-19T09:38:32.932Z,43.82
2019-05-19T09:40:32.858Z,43.82
2019-05-19T09:42:32.839Z,43.62
2019-05-19T09:44:32.826Z,43.84
2019-05-19T09:46:32.785Z,44.02
2019-05-19T09:48:32.805Z,43.52
2019-05-19T09:50:32.742Z,44.29
2019-05-19T09:52:32.711Z,43.90
2019-05-19T09:54:44.007Z,43.77
2019-05-19T09:56:33.672Z,42.88
2019-05-19T09:58:32.651Z,44.07
2019-05-19T10:00:32.643Z,43.48
2019-05-19T10:02:32.618Z,43.48
2019-05-19T10:04:32.585Z,43.77
2019-05-19T10:06:32.559Z,43.58
2019-05-19T10:08:32.589Z,43.68
2019-05-19T10:10:32.581Z,43.98
2019-05-19T10:12:32.495Z,43.76
2019-05-19T10:14:32.493Z,42.66
2019-05-19T10:16:32.472Z,42.95
2019-05-19T10:18:32.448Z,43.03
2019-05-19T10:20:32.425Z,42.32
2019-05-19T10:22:32.729Z,42.61
2019-05-19T10:24:32.412Z,42.21
2019-05-19T10:26:32.347Z,42.58
2019-05-19T10:28:32.328Z,41.97
2019-05-19T10:30:32.342Z,41.67
2019-05-19T10:32:32.284Z,42.05
2019-05-19T10:34:32.268Z,41.27
2019-05-19T10:36:32.258Z,41.83
2019-05-19T10:38:32.226Z,41.93
2019-05-19T10:40:32.213Z,42.02
2019-05-19T10:42:32.197Z,41.61
2019-05-19T10:44:32.229Z,41.89
2019-05-19T10:46:32.141Z,41.60
2019-05-19T10:48:32.178Z,41.79
2019-05-19T10:50:32.096Z,41.69
2019-05-19T10:52:32.252Z,41.86
2019-05-19T10:54:32.202Z,41.79
2019-05-19T10:56:32.146Z,41.79
2019-05-19T10:58:32.216Z,42.30
2019-05-19T11:00:32.066Z,42.80
2019-05-19T11:02:32.055Z,42.32
2019-05-19T11:04:31.978Z,42.22
2019-05-19T11:06:31.932Z,42.71
2019-05-19T11:08:31.923Z,42.63
2019-05-19T11:10:31.895Z,43.55
2019-05-19T11:12:31.873Z,44.06
2019-05-19T11:14:31.874Z,43.57
2019-05-19T11:16:31.831Z,44.40
2019-05-19T11:18:31.811Z,44.06
2019-05-19T11:20:31.794Z,43.46
2019-05-19T11:22:31.761Z,42.94
2019-05-19T11:24:31.797Z,42.54
2019-05-19T11:26:31.717Z,43.22
2019-05-19T11:28:31.715Z,43.04
2019-05-19T11:30:31.690Z,43.02
2019-05-19T11:32:31.655Z,43.22
2019-05-19T11:34:31.656Z,42.93
2019-05-19T11:36:31.631Z,43.02
2019-05-19T11:38:31.631Z,42.73
2019-05-19T11:40:31.577Z,42.46
2019-05-19T11:42:31.558Z,43.82
2019-05-19T11:44:31.538Z,43.65
2019-05-19T11:46:31.533Z,44.38
2019-05-19T11:48:31.548Z,44.16
2019-05-19T11:50:31.469Z,43.75
2019-05-19T11:52:31.459Z,42.65
2019-05-19T11:54:31.426Z,43.46
2019-05-19T11:56:31.436Z,43.75
2019-05-19T11:58:31.391Z,43.57
2019-05-19T12:00:31.372Z,44.48
2019-05-19T12:02:31.351Z,44.38
2019-05-19T12:04:31.400Z,45.18
2019-05-19T12:06:39.297Z,45.40
2019-05-19T12:08:32.295Z,44.38
2019-05-19T12:10:31.255Z,44.38
2019-05-19T12:12:31.329Z,44.79
2019-05-19T12:14:31.232Z,45.91
2019-05-19T12:16:31.195Z,46.03
2019-05-19T12:18:31.181Z,46.64
2019-05-19T12:20:31.179Z,46.56
2019-05-19T12:22:31.132Z,46.88
2019-05-19T12:24:31.142Z,46.71
2019-05-19T12:26:34.571Z,46.88
2019-05-19T12:28:31.094Z,47.00
2019-05-19T12:30:31.053Z,47.00
2019-05-19T12:32:31.044Z,47.44
2019-05-19T12:34:31.005Z,47.36
2019-05-19T12:36:30.983Z,47.56
2019-05-19T12:38:30.979Z,48.18
2019-05-19T12:40:30.960Z,48.99
2019-05-19T12:42:30.919Z,49.04
2019-05-19T12:44:30.895Z,49.28
2019-05-19T12:46:30.933Z,50.90
2019-05-19T12:48:30.903Z,51.37
2019-05-19T12:50:30.837Z,51.13
2019-05-19T12:52:30.834Z,51.75
2019-05-19T12:54:30.805Z,52.88
2019-05-19T12:56:39.001Z,53.01
2019-05-19T12:58:31.753Z,52.76
2019-05-19T13:00:30.726Z,53.88
2019-05-19T13:02:30.712Z,53.73
2019-05-19T13:04:30.721Z,53.96
2019-05-19T13:06:30.659Z,54.08
2019-05-19T13:08:30.651Z,55.05
2019-05-19T13:10:30.717Z,54.98
2019-05-19T13:12:30.609Z,55.63
2019-05-19T13:14:30.584Z,55.79
2019-05-19T13:16:30.575Z,56.04
2019-05-19T13:18:30.549Z,55.69
2019-05-19T13:20:30.534Z,56.92
2019-05-19T13:22:30.484Z,57.17
2019-05-19T13:24:30.473Z,56.90
2019-05-19T13:26:30.481Z,57.13
2019-05-19T13:28:30.419Z,56.88
2019-05-19T13:30:30.410Z,57.51
2019-05-19T13:32:30.383Z,57.57
2019-05-19T13:34:30.351Z,57.29
2019-05-19T13:36:30.366Z,57.79
2019-05-19T13:38:30.322Z,57.72
2019-05-19T13:40:30.296Z,56.82
2019-05-19T13:42:30.275Z,56.84
2019-05-19T13:44:30.263Z,57.04
2019-05-19T13:46:30.220Z,57.17
2019-05-19T13:48:30.193Z,56.97
2019-05-19T13:50:30.201Z,57.17
2019-05-19T13:52:30.169Z,57.70
2019-05-19T13:54:30.227Z,56.97
2019-05-19T13:56:30.143Z,57.30
2019-05-19T13:58:30.098Z,57.10
2019-05-19T14:00:30.075Z,57.20
2019-05-19T14:02:30.043Z,56.82
2019-05-19T14:04:30.125Z,57.53
2019-05-19T14:06:30.010Z,57.23
2019-05-19T14:08:30.027Z,57.63
2019-05-19T14:10:37.001Z,56.75
2019-05-19T14:12:29.936Z,56.85
2019-05-19T14:14:29.924Z,57.05
2019-05-19T14:16:29.899Z,57.56
2019-05-19T14:18:29.886Z,57.05
2019-05-19T14:20:29.886Z,57.28
2019-05-19T14:22:29.863Z,56.24
2019-05-19T14:24:29.839Z,56.75
2019-05-19T14:26:29.790Z,56.65
2019-05-19T14:28:29.780Z,56.04
2019-05-19T14:30:29.773Z,56.55
2019-05-19T14:32:29.736Z,56.24
2019-05-19T14:34:29.729Z,56.35
2019-05-19T14:36:29.680Z,56.04
2019-05-19T14:38:29.698Z,55.62
2019-05-19T14:40:29.698Z,56.12
2019-05-19T14:42:29.629Z,55.39
2019-05-19T14:44:29.598Z,55.49
2019-05-19T14:46:29.587Z,55.03
2019-05-19T14:48:29.551Z,54.93
2019-05-19T14:50:29.592Z,54.20
2019-05-19T14:52:29.517Z,53.50
2019-05-19T14:54:29.544Z,53.57
2019-05-19T14:56:29.470Z,53.42
2019-05-19T14:58:29.446Z,53.00
2019-05-19T15:00:29.434Z,52.17
2019-05-19T15:02:29.412Z,51.62
2019-05-19T15:04:29.384Z,50.87
2019-05-19T15:06:29.370Z,49.72
2019-05-19T15:08:29.338Z,49.17
2019-05-19T15:10:29.325Z,48.30
2019-05-19T15:12:29.311Z,47.75
2019-05-19T15:14:29.285Z,48.13
2019-05-19T15:16:29.248Z,47.74
2019-05-19T15:18:29.248Z,47.91
2019-05-19T15:20:29.209Z,48.11
2019-05-19T15:22:29.196Z,48.41
2019-05-19T15:24:29.171Z,48.91
2019-05-19T15:26:29.134Z,49.51
2019-05-19T15:28:29.130Z,49.60
2019-05-19T15:30:29.104Z,49.60
2019-05-19T15:32:29.076Z,49.40
2019-05-19T15:34:29.113Z,49.51
2019-05-19T15:36:29.039Z,49.51
2019-05-19T15:38:29.030Z,49.83
2019-05-19T15:40:29.020Z,50.32
2019-05-19T15:42:28.980Z,50.02
2019-05-19T15:44:28.948Z,50.43
2019-05-19T15:46:28.944Z,51.15
2019-05-19T15:48:29.088Z,51.77
2019-05-19T15:50:29.069Z,50.97
2019-05-19T15:52:29.005Z,51.50
2019-05-19T15:54:29.053Z,52.09
2019-05-19T15:56:29.011Z,52.42
2019-05-19T15:58:28.944Z,52.52
2019-05-19T16:00:28.925Z,52.42
2019-05-19T16:02:28.794Z,51.94
2019-05-19T16:04:28.745Z,52.34
2019-05-19T16:06:28.983Z,52.44
2019-05-19T16:08:50.383Z,53.17
2019-05-19T16:10:28.667Z,53.27
2019-05-19T16:12:28.635Z,52.87
2019-05-19T16:14:28.630Z,53.09
2019-05-19T16:16:28.624Z,53.19
2019-05-19T16:18:28.567Z,53.59
2019-05-19T16:20:28.593Z,53.49
2019-05-19T16:22:28.576Z,53.42
2019-05-19T16:24:28.528Z,53.72
2019-05-19T16:26:28.488Z,53.72
2019-05-19T16:28:30.615Z,53.32
2019-05-19T16:30:28.455Z,53.42
2019-05-19T16:32:28.410Z,53.52
2019-05-19T16:34:43.139Z,53.64
2019-05-19T16:36:30.331Z,53.14
2019-05-19T16:38:28.582Z,54.24
2019-05-19T16:40:28.342Z,53.34
2019-05-19T16:42:28.305Z,53.74
2019-05-19T16:44:28.289Z,54.05
2019-05-19T16:46:28.268Z,54.35
2019-05-19T16:48:28.242Z,54.24
2019-05-19T16:50:28.229Z,54.27
2019-05-19T16:52:28.259Z,54.24
2019-05-19T16:54:28.178Z,53.85
2019-05-19T16:56:28.168Z,53.55
2019-05-19T16:58:28.163Z,53.34
2019-05-19T17:00:28.105Z,53.24
2019-05-19T17:02:28.138Z,53.74
2019-05-19T17:04:28.104Z,53.55
2019-05-19T17:06:28.057Z,53.44
2019-05-19T17:08:28.017Z,52.92
2019-05-19T17:10:28.031Z,52.92
2019-05-19T17:12:27.976Z,53.52
2019-05-19T17:14:27.954Z,53.24
2019-05-19T17:16:27.939Z,53.14
2019-05-19T17:18:27.924Z,53.44
2019-05-19T17:20:30.918Z,53.27
2019-05-19T17:22:27.892Z,54.50
2019-05-19T17:24:27.854Z,54.10
2019-05-19T17:26:27.829Z,54.62
2019-05-19T17:28:27.811Z,54.62
2019-05-19T17:30:27.797Z,54.45
2019-05-19T17:32:27.760Z,54.85
2019-05-19T17:34:27.741Z,54.68
2019-05-19T17:36:27.712Z,54.27
2019-05-19T17:38:30.879Z,55.71
2019-05-19T17:40:27.671Z,55.63
2019-05-19T17:42:27.664Z,55.63
2019-05-19T17:44:27.646Z,55.55
2019-05-19T17:46:27.621Z,56.06
2019-05-19T17:48:34.306Z,55.68
2019-05-19T17:50:42.300Z,56.59
2019-05-19T17:52:27.570Z,56.82
2019-05-19T17:54:27.511Z,56.64
2019-05-19T17:56:27.509Z,56.84
2019-05-19T17:58:27.501Z,57.17
2019-05-19T18:00:27.442Z,56.97
2019-05-19T18:02:27.437Z,57.10
2019-05-19T18:04:27.422Z,56.90
2019-05-19T18:06:29.667Z,57.43
2019-05-19T18:08:27.409Z,57.63
2019-05-19T18:10:27.386Z,57.23
2019-05-19T18:12:27.323Z,57.23
2019-05-19T18:14:27.310Z,57.23
2019-05-19T18:16:27.327Z,57.12
2019-05-19T18:18:27.250Z,57.45
2019-05-19T18:20:27.240Z,57.15
2019-05-19T18:22:27.230Z,56.95
2019-05-19T18:24:27.191Z,56.85
2019-05-19T18:26:27.187Z,56.98
2019-05-19T18:28:27.160Z,56.68
2019-05-19T18:30:27.125Z,57.01
2019-05-19T18:32:27.120Z,57.71
2019-05-19T18:34:27.122Z,57.51
2019-05-19T18:36:27.077Z,57.41
2019-05-19T18:38:27.064Z,57.74
2019-05-19T18:40:27.013Z,57.64
2019-05-19T18:42:27.025Z,57.54
2019-05-19T18:44:26.995Z,57.87
2019-05-19T18:46:26.956Z,57.97
2019-05-19T18:48:26.938Z,57.97
2019-05-19T18:50:26.930Z,58.09
2019-05-19T18:52:26.898Z,57.89
2019-05-19T18:54:26.865Z,58.00
2019-05-19T18:56:26.869Z,58.09
2019-05-19T18:58:26.919Z,58.12
2019-05-19T19:00:26.809Z,57.92
2019-05-19T19:02:26.818Z,58.02
2019-05-19T19:04:26.755Z,57.72
2019-05-19T19:06:26.766Z,57.85
2019-05-19T19:08:26.714Z,58.45
2019-05-19T19:10:26.705Z,57.75
2019-05-19T19:12:26.691Z,57.85
2019-05-19T19:14:27.714Z,58.05
2019-05-19T19:16:26.642Z,58.05
2019-05-19T19:18:26.625Z,58.36
2019-05-19T19:20:26.592Z,57.95
2019-05-19T19:22:26.574Z,58.15
2019-05-19T19:24:26.562Z,58.25
2019-05-19T19:26:26.553Z,57.95
2019-05-19T19:28:26.510Z,58.02
2019-05-19T19:30:26.724Z,57.75
2019-05-19T19:32:26.460Z,57.31
2019-05-19T19:34:26.455Z,57.92
2019-05-19T19:36:26.434Z,57.92
2019-05-19T19:38:26.416Z,57.72
2019-05-19T19:40:41.290Z,57.62
2019-05-19T19:42:26.361Z,57.59
2019-05-19T19:44:26.348Z,57.89
2019-05-19T19:46:26.317Z,57.11
2019-05-19T19:48:27.385Z,57.42
2019-05-19T19:50:32.343Z,57.18
2019-05-19T19:52:27.340Z,57.79
2019-05-19T19:54:26.779Z,57.31
2019-05-19T19:56:26.206Z,57.29
2019-05-19T19:58:26.188Z,57.29
2019-05-19T20:00:26.164Z,57.18
2019-05-19T20:02:26.135Z,57.18
2019-05-19T20:04:26.140Z,57.31
2019-05-19T20:06:26.116Z,57.09
2019-05-19T20:08:26.079Z,57.11
2019-05-19T20:10:26.069Z,57.39
2019-05-19T20:12:26.052Z,57.29
2019-05-19T20:14:26.029Z,57.31
2019-05-19T20:16:26.014Z,57.72
2019-05-19T20:18:25.963Z,57.62
2019-05-19T20:20:25.966Z,57.21
2019-05-19T20:22:25.926Z,57.85
2019-05-19T20:24:25.901Z,57.82
2019-05-19T20:26:25.881Z,58.12
2019-05-19T20:28:25.864Z,58.23
2019-05-19T20:30:35.119Z,58.12
2019-05-19T20:32:26.833Z,58.15
2019-05-19T20:34:25.835Z,57.62
2019-05-19T20:36:25.790Z,57.75
2019-05-19T20:38:25.753Z,57.72
2019-05-19T20:40:25.726Z,57.52
2019-05-19T20:42:25.739Z,57.85
2019-05-19T20:44:25.678Z,57.75
2019-05-19T20:46:25.663Z,57.65
2019-05-19T20:48:25.643Z,58.05
2019-05-19T20:50:25.639Z,57.85
2019-05-19T20:52:25.618Z,57.67
2019-05-19T20:54:49.813Z,57.78
2019-05-19T20:56:32.275Z,57.87
2019-05-19T20:58:25.547Z,58.71
2019-05-19T21:00:25.523Z,58.31
2019-05-19T21:02:25.480Z,58.11
2019-05-19T21:04:25.470Z,58.13
2019-05-19T21:06:25.444Z,58.03
2019-05-19T21:08:25.447Z,57.93
2019-05-19T21:10:25.410Z,58.67
2019-05-19T21:12:25.375Z,58.87
2019-05-19T21:14:25.382Z,59.17
2019-05-19T21:16:25.332Z,59.41
2019-05-19T21:18:25.379Z,59.10
2019-05-19T21:20:25.307Z,59.50
2019-05-19T21:22:25.285Z,59.43
2019-05-19T21:24:25.246Z,59.66
2019-05-19T21:26:25.240Z,59.26
2019-05-19T21:28:25.329Z,59.56
2019-05-19T21:30:25.186Z,59.66
2019-05-19T21:32:25.170Z,59.59
2019-05-19T21:34:25.155Z,59.86
2019-05-19T21:36:25.133Z,59.89
2019-05-19T21:38:25.086Z,59.59
2019-05-19T21:40:29.333Z,59.59
2019-05-19T21:42:25.056Z,59.62
2019-05-19T21:44:25.026Z,59.41
2019-05-19T21:46:25.006Z,59.72
2019-05-19T21:48:25.022Z,59.64
2019-05-19T21:50:24.955Z,59.54
2019-05-19T21:52:24.949Z,59.54
2019-05-19T21:54:24.945Z,59.75
2019-05-19T21:56:24.894Z,59.75
2019-05-19T21:58:24.889Z,59.54
2019-05-19T22:00:24.888Z,59.67
2019-05-19T22:02:24.841Z,59.57
2019-05-19T22:04:24.826Z,59.57
2019-05-19T22:06:24.785Z,59.77
2019-05-19T22:08:24.790Z,59.70
2019-05-19T22:10:24.761Z,59.70
2019-05-19T22:12:24.734Z,59.60
2019-05-19T22:14:24.697Z,59.60
2019-05-19T22:16:24.695Z,59.60
2019-05-19T22:18:24.695Z,59.70
2019-05-19T22:20:24.653Z,59.70
2019-05-19T22:22:24.661Z,59.60
2019-05-19T22:24:24.609Z,59.60
2019-05-19T22:26:24.573Z,59.83
2019-05-19T22:28:24.556Z,59.70
2019-05-19T22:30:24.530Z,59.83
2019-05-19T22:32:24.502Z,60.24
2019-05-19T22:34:24.551Z,59.83
2019-05-19T22:36:24.481Z,59.73
2019-05-19T22:38:24.478Z,59.53
2019-05-19T22:40:24.427Z,59.83
2019-05-19T22:42:24.394Z,59.83
2019-05-19T22:44:24.398Z,59.75
2019-05-19T22:46:24.384Z,59.73
2019-05-19T22:48:24.335Z,59.14
2019-05-19T22:50:24.450Z,60.16
2019-05-19T22:52:24.301Z,60.16
2019-05-19T22:54:24.284Z,59.75
2019-05-19T22:56:24.257Z,60.16
2019-05-19T22:58:24.227Z,60.09
2019-05-19T23:00:24.228Z,60.09
2019-05-19T23:02:24.182Z,58.97
2019-05-19T23:04:24.186Z,58.97
2019-05-19T23:06:24.147Z,59.89
2019-05-19T23:08:24.151Z,59.17
2019-05-19T23:10:24.128Z,59.89
2019-05-19T23:12:24.095Z,59.78
2019-05-19T23:14:24.050Z,59.71
2019-05-19T23:16:24.087Z,59.81
2019-05-19T23:18:24.017Z,59.71
2019-05-19T23:20:24.003Z,59.61
2019-05-19T23:22:23.962Z,60.12
2019-05-19T23:24:23.961Z,59.61
2019-05-19T23:26:23.920Z,59.91
2019-05-19T23:28:23.908Z,60.22
